Terminal Aerodrome Forecast
Issued by NWS Paducah, KY

Home | Current Version | Previous Version | Text Only | Print | Product List | Glossary On
Versions: 1 2 3 4 5 6 7 8 9 10 11 12 13 14
000
FTUS43 KPAH 241100
TAFEVV
TAF
KEVV 241127Z 2412/2512 22020G30KT P6SM BKN025
     FM241300 26022G34KT P6SM BKN035
     FM250000 25008KT P6SM SCT050=

USA.gov is the U.S. government's official web portal to all federal, state and local government web resources and services.